Time;durP1;ratioP1;P1;durP2;ratioP2;P2;SDS_P1;SDS_P2;PMS_P1;PMS_P2;Temp;Humidity;BMP_temperature;BMP_pressure;BME280_temperature;BME280_humidity;BME280_pressure;Samples;Min_cycle;Max_cycle;Signal;HPM_P1;HPM_P2
2024/01/28 00:01:24;;;;;;;6.97;3.42;;;7.40;99.90;;;;;;10430374;28;20148;-67
2024/01/28 00:06:25;;;;;;;6.40;3.00;;;7.40;99.90;;;;;;10430457;28;20039;-67
2024/01/28 00:11:25;;;;;;;5.88;3.22;;;7.40;99.90;;;;;;10450328;28;20028;-67
2024/01/28 00:16:26;;;;;;;5.63;3.40;;;7.40;99.90;;;;;;10451993;28;20444;-67
2024/01/28 00:21:27;;;;;;;6.45;3.47;;;7.30;99.90;;;;;;10455242;28;20486;-67
2024/01/28 00:26:28;;;;;;;7.35;3.40;;;7.40;99.90;;;;;;10456736;28;20028;-67
2024/01/28 00:31:28;;;;;;;4.93;3.05;;;7.30;99.90;;;;;;10451312;28;20029;-66
2024/01/28 00:36:29;;;;;;;5.85;3.20;;;7.30;99.90;;;;;;10449977;28;20104;-67
2024/01/28 00:41:29;;;;;;;9.68;3.25;;;7.30;99.90;;;;;;10456211;28;20025;-67
2024/01/28 00:46:32;;;;;;;6.32;3.20;;;7.30;99.90;;;;;;10444653;28;20059;-67
2024/01/28 00:51:32;;;;;;;7.53;3.97;;;7.30;99.90;;;;;;10457597;28;20461;-67
2024/01/28 00:56:33;;;;;;;5.68;3.35;;;7.20;99.90;;;;;;10470724;28;20112;-67
2024/01/28 01:01:34;;;;;;;6.20;2.90;;;7.30;99.90;;;;;;10455685;28;20021;-68
2024/01/28 01:06:37;;;;;;;5.22;3.20;;;7.30;99.90;;;;;;10466361;28;20508;-67
2024/01/28 01:11:38;;;;;;;5.72;3.22;;;7.20;99.90;;;;;;10472588;28;20012;-67
2024/01/28 01:16:38;;;;;;;5.32;3.00;;;7.20;99.90;;;;;;10467772;28;20020;-67
2024/01/28 01:21:39;;;;;;;6.18;3.55;;;7.20;99.90;;;;;;10465200;28;20017;-67
2024/01/28 01:26:39;;;;;;;7.75;3.25;;;7.20;99.90;;;;;;10467338;28;20039;-67
2024/01/28 01:31:40;;;;;;;5.90;3.13;;;7.20;99.90;;;;;;10451943;28;20028;-67
2024/01/28 01:36:44;;;;;;;7.38;3.45;;;7.20;99.90;;;;;;10456506;28;20025;-67
2024/01/28 01:41:45;;;;;;;5.68;3.22;;;7.20;99.90;;;;;;10458597;28;20283;-67
2024/01/28 01:46:46;;;;;;;5.13;3.30;;;7.20;99.90;;;;;;10460224;28;20029;-67
2024/01/28 01:51:46;;;;;;;5.38;2.78;;;7.20;99.90;;;;;;10456355;28;20012;-68
2024/01/28 01:56:47;;;;;;;7.05;3.20;;;7.20;99.90;;;;;;10460188;28;20035;-68
2024/01/28 02:01:48;;;;;;;6.13;2.97;;;7.20;99.90;;;;;;10461145;28;20150;-67
2024/01/28 02:06:51;;;;;;;6.00;3.13;;;7.20;99.90;;;;;;10458744;28;20020;-67
2024/01/28 02:11:53;;;;;;;5.95;2.92;;;7.20;99.90;;;;;;10463047;28;20025;-68
2024/01/28 02:16:53;;;;;;;8.38;3.42;;;7.10;99.90;;;;;;10465273;28;20032;-67
2024/01/28 02:21:54;;;;;;;5.03;2.92;;;7.10;99.90;;;;;;10448394;28;20028;-67
2024/01/28 02:26:54;;;;;;;4.97;2.95;;;7.10;99.90;;;;;;10456325;28;20029;-67
2024/01/28 02:31:55;;;;;;;6.47;3.17;;;7.10;99.90;;;;;;10460128;28;20025;-66
2024/01/28 02:36:55;;;;;;;6.88;3.08;;;7.10;99.90;;;;;;10454195;28;20021;-67
2024/01/28 02:41:56;;;;;;;5.60;3.00;;;7.10;99.90;;;;;;10453572;28;20044;-67
2024/01/28 02:46:56;;;;;;;6.32;3.15;;;7.10;99.90;;;;;;10460080;28;20436;-68
2024/01/28 02:51:57;;;;;;;5.28;3.05;;;7.10;99.90;;;;;;10449242;28;20731;-67
2024/01/28 02:56:58;;;;;;;5.97;2.78;;;7.10;99.90;;;;;;10448775;28;20038;-66
2024/01/28 03:01:58;;;;;;;6.85;3.42;;;7.10;99.90;;;;;;10447739;28;20044;-67
2024/01/28 03:06:59;;;;;;;5.88;3.08;;;7.10;99.90;;;;;;10460083;28;20032;-67
2024/01/28 03:11:59;;;;;;;4.65;3.13;;;7.10;99.90;;;;;;10457696;28;20174;-67
2024/01/28 03:17:00;;;;;;;5.93;3.25;;;7.00;99.90;;;;;;10451876;28;20032;-67
2024/01/28 03:22:01;;;;;;;6.25;3.03;;;7.00;99.90;;;;;;10453964;28;20032;-67
2024/01/28 03:27:01;;;;;;;7.63;3.40;;;7.00;99.90;;;;;;10456771;28;20030;-67
2024/01/28 03:32:02;;;;;;;8.65;3.85;;;7.00;99.90;;;;;;10456586;28;20029;-67
2024/01/28 03:37:03;;;;;;;6.57;3.55;;;7.00;99.90;;;;;;10459352;28;20095;-67
2024/01/28 03:42:04;;;;;;;5.75;3.67;;;7.00;99.90;;;;;;10458963;28;20563;-66
2024/01/28 03:47:05;;;;;;;7.40;3.50;;;7.00;99.90;;;;;;10463562;28;20409;-66
2024/01/28 03:52:05;;;;;;;7.55;3.53;;;7.00;99.90;;;;;;10464792;28;20025;-67
2024/01/28 03:57:07;;;;;;;7.13;3.03;;;7.00;99.90;;;;;;10466720;28;20123;-67
2024/01/28 04:02:07;;;;;;;8.45;3.67;;;7.00;99.90;;;;;;10461939;28;20033;-67
2024/01/28 04:07:08;;;;;;;6.55;3.47;;;7.00;99.90;;;;;;10469422;28;20480;-67
2024/01/28 04:12:08;;;;;;;7.53;3.47;;;6.90;99.90;;;;;;10461182;28;20522;-67
2024/01/28 04:17:09;;;;;;;6.03;3.50;;;6.90;99.90;;;;;;10450167;28;20090;-67
2024/01/28 04:22:10;;;;;;;6.55;3.55;;;7.30;99.90;;;;;;10467149;28;20489;-67
2024/01/28 04:27:10;;;;;;;8.75;3.90;;;6.90;99.90;;;;;;10465340;28;20111;-67
2024/01/28 04:32:11;;;;;;;6.35;3.38;;;6.90;99.90;;;;;;10448632;28;20017;-66
2024/01/28 04:37:12;;;;;;;8.15;3.83;;;6.90;99.90;;;;;;10464795;28;20539;-67
2024/01/28 04:42:12;;;;;;;5.53;3.22;;;6.90;99.90;;;;;;10468254;28;20020;-67
2024/01/28 04:47:13;;;;;;;8.40;3.42;;;6.90;99.90;;;;;;10461468;28;20022;-67
2024/01/28 04:52:14;;;;;;;6.38;3.60;;;6.90;99.90;;;;;;10466034;28;20025;-67
2024/01/28 04:57:14;;;;;;;9.27;3.92;;;6.80;99.90;;;;;;10468762;28;20044;-66
2024/01/28 05:02:15;;;;;;;8.95;4.13;;;6.80;99.90;;;;;;10458288;28;20040;-67
2024/01/28 05:07:16;;;;;;;6.68;3.10;;;6.80;99.90;;;;;;10469889;28;20029;-67
2024/01/28 05:12:17;;;;;;;7.00;3.45;;;6.80;99.90;;;;;;10468264;28;20025;-67
2024/01/28 05:17:17;;;;;;;6.03;3.70;;;6.80;99.90;;;;;;10459759;28;20024;-67
2024/01/28 05:22:19;;;;;;;4.60;3.50;;;6.80;99.90;;;;;;10476372;28;20025;-67
2024/01/28 05:27:20;;;;;;;6.38;3.30;;;6.80;99.90;;;;;;10465955;28;20021;-67
2024/01/28 05:32:20;;;;;;;9.20;3.78;;;6.70;99.90;;;;;;10463202;28;20047;-66
2024/01/28 05:37:21;;;;;;;9.35;4.15;;;6.70;99.90;;;;;;10466284;28;20028;-67
2024/01/28 05:42:21;;;;;;;7.82;4.13;;;6.70;99.90;;;;;;10471914;28;20111;-67
2024/01/28 05:47:22;;;;;;;6.65;3.53;;;6.70;99.90;;;;;;10473198;28;20525;-67
2024/01/28 05:52:23;;;;;;;10.05;4.03;;;6.70;99.90;;;;;;10462950;28;20017;-67
2024/01/28 05:57:24;;;;;;;7.10;3.78;;;6.70;99.90;;;;;;10474867;28;20043;-66
2024/01/28 06:02:25;;;;;;;5.57;3.45;;;6.70;99.90;;;;;;10472495;28;20020;-67
2024/01/28 06:07:25;;;;;;;7.53;3.45;;;6.70;99.90;;;;;;10459458;28;20037;-67
2024/01/28 06:12:26;;;;;;;7.03;3.50;;;6.70;99.90;;;;;;10469303;28;20396;-67
2024/01/28 06:17:27;;;;;;;5.93;3.50;;;6.70;99.90;;;;;;10462029;28;20715;-67
2024/01/28 06:22:27;;;;;;;8.13;3.70;;;6.70;99.90;;;;;;10468964;28;20033;-67
2024/01/28 06:27:28;;;;;;;5.80;3.40;;;6.60;99.90;;;;;;10470453;28;20166;-68
2024/01/28 06:32:28;;;;;;;6.80;3.25;;;6.60;99.90;;;;;;10464539;28;20020;-67
2024/01/28 06:37:29;;;;;;;5.65;3.78;;;6.60;99.90;;;;;;10473501;28;20077;-67
2024/01/28 06:42:32;;;;;;;5.65;3.17;;;6.60;99.90;;;;;;10466693;28;20032;-67
2024/01/28 06:47:32;;;;;;;7.65;3.53;;;6.60;99.90;;;;;;10459115;28;20024;-67
2024/01/28 06:52:33;;;;;;;6.72;3.30;;;6.60;99.90;;;;;;10458977;28;20472;-67
2024/01/28 06:57:33;;;;;;;6.78;3.30;;;6.60;99.90;;;;;;10470598;28;20035;-66
2024/01/28 07:02:34;;;;;;;7.90;3.40;;;6.60;99.90;;;;;;10440106;28;20140;-67
2024/01/28 07:07:34;;;;;;;5.63;3.13;;;6.60;99.90;;;;;;10450919;28;20396;-67
2024/01/28 07:12:35;;;;;;;10.57;3.78;;;6.50;99.90;;;;;;10458355;28;20036;-67
2024/01/28 07:17:36;;;;;;;5.25;3.80;;;6.50;99.90;;;;;;10463683;28;20638;-67
2024/01/28 07:22:36;;;;;;;6.50;3.60;;;6.50;99.90;;;;;;10463917;28;20022;-67
2024/01/28 07:27:37;;;;;;;5.95;3.85;;;6.50;99.90;;;;;;10466192;28;20084;-67
2024/01/28 07:32:38;;;;;;;5.90;2.97;;;6.50;99.90;;;;;;10469886;28;20017;-67
2024/01/28 07:37:38;;;;;;;7.20;3.40;;;6.50;99.90;;;;;;10471435;28;20017;-67
2024/01/28 07:42:39;;;;;;;7.70;3.58;;;6.50;99.90;;;;;;10468701;28;20600;-67
2024/01/28 07:47:40;;;;;;;6.20;2.88;;;6.50;99.90;;;;;;10471814;28;20417;-66
2024/01/28 07:52:41;;;;;;;6.07;3.13;;;6.40;99.90;;;;;;10465540;28;20637;-67
2024/01/28 07:57:41;;;;;;;6.65;3.67;;;6.50;99.90;;;;;;10465429;28;20024;-67
2024/01/28 08:02:42;;;;;;;8.93;3.55;;;6.40;99.90;;;;;;10467006;28;20431;-67
2024/01/28 08:07:42;;;;;;;7.28;3.42;;;6.40;99.90;;;;;;10468851;28;20378;-67
2024/01/28 08:12:43;;;;;;;7.45;3.80;;;6.40;99.90;;;;;;10471775;28;20556;-68
2024/01/28 08:17:49;;;;;;;6.85;3.70;;;6.40;99.90;;;;;;10459058;28;20029;-67
2024/01/28 08:22:50;;;;;;;8.98;3.90;;;6.40;99.90;;;;;;10460021;28;20025;-67
2024/01/28 08:27:50;;;;;;;7.32;4.28;;;6.40;99.90;;;;;;10472606;28;20089;-66
2024/01/28 08:32:51;;;;;;;8.15;3.90;;;6.40;99.90;;;;;;10453772;28;20575;-67
2024/01/28 08:37:52;;;;;;;9.38;3.75;;;6.40;99.90;;;;;;10468055;28;20024;-67
2024/01/28 08:42:53;;;;;;;6.25;3.60;;;6.40;99.90;;;;;;10465566;28;20033;-67
2024/01/28 08:47:53;;;;;;;7.85;3.50;;;6.40;99.90;;;;;;10457037;28;20547;-67
2024/01/28 08:52:54;;;;;;;10.32;3.60;;;6.40;99.90;;;;;;10452939;28;20024;-68
2024/01/28 08:57:54;;;;;;;5.47;3.72;;;6.50;99.90;;;;;;10470020;28;20025;-68
2024/01/28 09:02:55;;;;;;;6.93;3.78;;;6.60;99.90;;;;;;10456680;28;20147;-70
2024/01/28 09:07:56;;;;;;;7.80;3.90;;;6.60;99.90;;;;;;10463399;28;20036;-69
2024/01/28 09:12:57;;;;;;;11.15;4.38;;;6.60;99.90;;;;;;10460218;28;20020;-68
2024/01/28 09:17:58;;;;;;;6.05;4.10;;;6.60;99.90;;;;;;10461890;28;20020;-68
2024/01/28 09:22:59;;;;;;;11.82;4.63;;;6.70;99.90;;;;;;10454605;28;20031;-68
2024/01/28 09:28:00;;;;;;;9.63;4.65;;;6.70;99.90;;;;;;10471078;28;20021;-69
2024/01/28 09:33:01;;;;;;;12.38;5.13;;;6.70;99.90;;;;;;10456659;28;20091;-67
2024/01/28 09:38:01;;;;;;;12.50;5.80;;;6.70;99.90;;;;;;10456416;28;20401;-67
2024/01/28 09:43:39;;;;;;;11.57;5.35;;;6.70;99.90;;;;;;10471797;28;20033;-68
2024/01/28 09:48:44;;;;;;;10.95;5.03;;;6.80;99.90;;;;;;10449050;28;20041;-68
2024/01/28 09:53:44;;;;;;;12.88;5.05;;;6.80;99.90;;;;;;10451082;28;20625;-70
2024/01/28 09:58:45;;;;;;;10.73;4.90;;;6.80;99.90;;;;;;10462888;28;20269;-69
2024/01/28 10:03:47;;;;;;;11.55;5.05;;;6.90;99.90;;;;;;10444821;28;20536;-66
2024/01/28 10:08:47;;;;;;;10.43;5.10;;;6.90;99.90;;;;;;10459335;28;20021;-68
2024/01/28 10:13:48;;;;;;;9.60;4.28;;;7.00;99.90;;;;;;10455941;28;20025;-68
2024/01/28 10:18:48;;;;;;;11.43;4.57;;;7.00;99.90;;;;;;10453726;28;20178;-68
2024/01/28 10:23:49;;;;;;;8.55;4.32;;;7.10;99.90;;;;;;10450514;28;20400;-68
2024/01/28 10:28:51;;;;;;;10.15;3.83;;;7.20;99.90;;;;;;10461361;28;20040;-66
2024/01/28 10:33:52;;;;;;;9.68;3.60;;;7.20;99.90;;;;;;10452130;28;20028;-68
2024/01/28 10:38:59;;;;;;;8.10;3.80;;;7.30;99.90;;;;;;10462738;28;20035;-68
2024/01/28 10:44:00;;;;;;;7.75;3.33;;;7.30;99.90;;;;;;10465469;28;20024;-68
2024/01/28 10:49:06;;;;;;;7.05;3.55;;;7.40;99.90;;;;;;10456515;28;20044;-67
2024/01/28 10:54:08;;;;;;;11.80;3.33;;;7.50;99.90;;;;;;10452899;28;20025;-67
2024/01/28 10:59:09;;;;;;;6.65;2.97;;;7.50;99.90;;;;;;10461286;28;20037;-67
2024/01/28 11:04:09;;;;;;;8.65;3.08;;;7.60;99.90;;;;;;10457131;28;20631;-67
2024/01/28 11:09:11;;;;;;;6.32;2.90;;;7.60;99.90;;;;;;10462642;28;20464;-67
2024/01/28 11:14:13;;;;;;;5.82;3.13;;;7.60;99.90;;;;;;10460206;28;20577;-68
2024/01/28 11:19:15;;;;;;;6.32;3.10;;;7.60;99.90;;;;;;10456827;28;20405;-67
2024/01/28 11:24:16;;;;;;;4.30;2.58;;;7.70;99.90;;;;;;10460118;28;20048;-67
2024/01/28 11:29:17;;;;;;;7.60;2.70;;;7.70;99.90;;;;;;10462440;28;20512;-67
2024/01/28 11:34:20;;;;;;;6.80;2.50;;;7.80;99.90;;;;;;10458095;28;20023;-67
2024/01/28 11:39:40;;;;;;;4.45;2.58;;;7.80;99.90;;;;;;10462183;28;20136;-67
2024/01/28 11:44:43;;;;;;;7.82;3.00;;;7.90;99.90;;;;;;10457491;28;20078;-68
2024/01/28 11:49:43;;;;;;;3.90;2.22;;;7.90;99.90;;;;;;10457841;28;20017;-69
2024/01/28 11:54:47;;;;;;;7.03;2.22;;;8.00;99.90;;;;;;10451345;28;20043;-69
2024/01/28 11:59:48;;;;;;;6.72;2.25;;;8.00;99.90;;;;;;10463096;28;20024;-68
2024/01/28 12:04:55;;;;;;;3.03;2.03;;;8.00;99.90;;;;;;10453836;28;20023;-68
2024/01/28 12:09:57;;;;;;;4.82;2.22;;;8.10;99.90;;;;;;10459120;28;20489;-68
2024/01/28 12:14:58;;;;;;;4.05;2.03;;;8.00;99.90;;;;;;10458771;28;20021;-68
2024/01/28 12:19:59;;;;;;;8.50;2.25;;;8.10;99.90;;;;;;10461947;28;20508;-69
2024/01/28 12:25:09;;;;;;;4.88;2.40;;;8.10;99.90;;;;;;10468648;28;20048;-68
2024/01/28 12:30:12;;;;;;;4.20;2.05;;;8.10;99.90;;;;;;10459485;28;20032;-68
2024/01/28 12:35:13;;;;;;;4.20;2.33;;;8.10;99.90;;;;;;10472379;28;20082;-68
2024/01/28 12:40:14;;;;;;;6.00;2.00;;;8.00;99.90;;;;;;10461598;28;20111;-67
2024/01/28 12:45:15;;;;;;;3.60;2.08;;;8.60;99.90;;;;;;10449189;28;20311;-68
2024/01/28 12:50:15;;;;;;;3.92;1.90;;;8.10;99.90;;;;;;10447220;28;20421;-67
2024/01/28 12:55:16;;;;;;;6.25;2.55;;;8.00;99.90;;;;;;10452562;28;20075;-67
2024/01/28 13:00:17;;;;;;;7.90;2.28;;;8.00;99.90;;;;;;10450253;28;20086;-68
2024/01/28 13:05:17;;;;;;;4.32;2.20;;;8.10;99.90;;;;;;10454016;28;20119;-68
2024/01/28 13:10:18;;;;;;;4.20;2.30;;;8.00;99.40;;;;;;10458525;28;20119;-68
2024/01/28 13:15:18;;;;;;;7.32;2.22;;;8.00;99.20;;;;;;10451241;28;20412;-69
2024/01/28 13:20:19;;;;;;;7.65;2.50;;;8.10;99.40;;;;;;10458590;28;20420;-68
2024/01/28 13:25:20;;;;;;;6.57;2.20;;;8.10;99.50;;;;;;10452547;28;20025;-68
2024/01/28 13:30:21;;;;;;;3.13;2.20;;;8.10;99.50;;;;;;10449199;28;20033;-68
2024/01/28 13:35:22;;;;;;;4.28;2.20;;;8.20;99.50;;;;;;10450397;28;20027;-66
2024/01/28 13:40:22;;;;;;;4.43;2.33;;;8.30;99.60;;;;;;10450846;28;20029;-68
2024/01/28 13:45:23;;;;;;;4.55;2.05;;;8.30;99.00;;;;;;10462313;28;20029;-68
2024/01/28 13:50:23;;;;;;;7.88;2.40;;;8.20;98.10;;;;;;10460644;28;20027;-67
2024/01/28 13:55:24;;;;;;;6.45;2.20;;;8.10;98.10;;;;;;10446084;28;20025;-69
2024/01/28 14:00:24;;;;;;;3.58;2.15;;;8.00;98.20;;;;;;10458977;28;20020;-68
2024/01/28 14:05:25;;;;;;;5.13;2.10;;;8.00;97.90;;;;;;10456457;28;20067;-68
2024/01/28 14:10:26;;;;;;;4.55;1.98;;;8.00;97.70;;;;;;10457459;28;20082;-68
2024/01/28 14:15:26;;;;;;;5.57;2.08;;;8.00;97.60;;;;;;10463119;28;20052;-68
2024/01/28 14:20:31;;;;;;;6.20;2.50;;;8.00;97.40;;;;;;10456454;28;20290;-67
2024/01/28 14:25:32;;;;;;;4.95;2.35;;;8.00;97.50;;;;;;10457827;28;20115;-68
2024/01/28 14:30:32;;;;;;;6.05;2.50;;;8.00;97.50;;;;;;10464444;28;20086;-68
2024/01/28 14:35:33;;;;;;;6.63;2.47;;;8.10;97.30;;;;;;10458102;28;20032;-68
2024/01/28 14:40:34;;;;;;;5.90;2.55;;;8.20;97.50;;;;;;10457925;28;20163;-68
2024/01/28 14:45:34;;;;;;;5.95;2.88;;;8.30;97.10;;;;;;10452167;28;20045;-68
2024/01/28 14:50:39;;;;;;;3.15;2.20;;;8.20;97.30;;;;;;10462658;28;20241;-67
2024/01/28 14:55:40;;;;;;;7.90;2.50;;;8.20;97.30;;;;;;10466469;28;20435;-67
2024/01/28 15:00:40;;;;;;;2.85;2.00;;;8.10;97.40;;;;;;10442686;28;20029;-66
2024/01/28 15:05:41;;;;;;;7.88;3.08;;;8.00;97.40;;;;;;10452192;28;20025;-66
2024/01/28 15:10:41;;;;;;;4.55;2.55;;;7.90;97.50;;;;;;10459843;28;20033;-66
2024/01/28 15:15:42;;;;;;;4.65;2.40;;;7.80;97.60;;;;;;10455703;28;20021;-72
2024/01/28 15:20:42;;;;;;;5.45;2.97;;;7.90;98.10;;;;;;10456859;28;20029;-66
2024/01/28 15:25:43;;;;;;;5.70;2.72;;;8.00;98.30;;;;;;10443292;28;20482;-67
2024/01/28 15:30:44;;;;;;;4.45;2.58;;;8.10;98.40;;;;;;10437612;28;20025;-69
2024/01/28 15:35:45;;;;;;;5.18;2.83;;;8.10;98.50;;;;;;10438424;28;20037;-67
2024/01/28 15:40:46;;;;;;;6.13;2.55;;;8.10;98.50;;;;;;10454044;28;20044;-66
2024/01/28 15:45:46;;;;;;;3.47;2.22;;;8.10;98.60;;;;;;10451894;28;20706;-68
2024/01/28 15:50:47;;;;;;;3.97;2.30;;;8.10;98.70;;;;;;10451205;28;20480;-68
2024/01/28 15:55:48;;;;;;;4.38;2.55;;;8.10;98.80;;;;;;10453716;28;20370;-67
2024/01/28 16:00:48;;;;;;;3.55;2.13;;;8.10;98.90;;;;;;10445570;28;20017;-67
2024/01/28 16:05:49;;;;;;;4.32;2.15;;;8.20;98.90;;;;;;10442228;28;20024;-66
2024/01/28 16:10:50;;;;;;;4.47;2.50;;;8.20;99.00;;;;;;10454008;28;20027;-66
2024/01/28 16:15:50;;;;;;;4.00;2.00;;;8.20;99.00;;;;;;10443592;28;20514;-66
2024/01/28 16:20:51;;;;;;;4.15;2.20;;;8.20;99.10;;;;;;10437674;28;20021;-66
2024/01/28 16:25:52;;;;;;;6.57;2.40;;;8.20;99.20;;;;;;10442096;28;20609;-66
2024/01/28 16:30:53;;;;;;;3.45;2.05;;;8.20;99.20;;;;;;10448895;28;20029;-70
2024/01/28 16:35:53;;;;;;;3.22;2.30;;;8.30;99.30;;;;;;10460373;28;20078;-69
2024/01/28 16:40:54;;;;;;;3.22;1.75;;;8.20;99.30;;;;;;10453778;28;20358;-68
2024/01/28 16:45:56;;;;;;;4.00;2.10;;;8.20;99.50;;;;;;10451565;28;20043;-68
2024/01/28 16:50:57;;;;;;;2.42;1.90;;;8.10;99.60;;;;;;10451886;28;20606;-68
2024/01/28 16:55:58;;;;;;;6.80;2.15;;;8.10;99.80;;;;;;10448410;28;20028;-69
2024/01/28 17:00:58;;;;;;;4.47;2.30;;;8.10;99.80;;;;;;10448895;28;21741;-70
2024/01/28 17:05:59;;;;;;;4.93;2.50;;;8.10;99.70;;;;;;10457543;28;20507;-69
2024/01/28 17:11:00;;;;;;;3.00;1.85;;;8.10;99.70;;;;;;10454040;28;20444;-66
2024/01/28 17:16:01;;;;;;;4.18;2.40;;;8.20;99.80;;;;;;10452652;28;20032;-68
2024/01/28 17:21:01;;;;;;;7.18;2.78;;;8.20;99.70;;;;;;10449171;28;20027;-67
2024/01/28 17:26:03;;;;;;;4.28;2.25;;;8.10;99.70;;;;;;10453372;28;20524;-67
2024/01/28 17:31:04;;;;;;;3.67;2.33;;;8.10;99.70;;;;;;10447261;28;20021;-67
2024/01/28 17:36:04;;;;;;;3.80;2.25;;;8.10;99.70;;;;;;10458769;28;20396;-67
2024/01/28 17:41:05;;;;;;;3.85;2.30;;;8.10;99.80;;;;;;10457076;28;20073;-66
2024/01/28 17:46:06;;;;;;;3.38;2.00;;;8.10;99.90;;;;;;10445652;28;20070;-66
2024/01/28 17:51:06;;;;;;;4.07;1.98;;;8.00;99.80;;;;;;10449002;28;20443;-67
2024/01/28 17:56:08;;;;;;;3.72;1.98;;;8.00;99.80;;;;;;10449707;28;20021;-67
2024/01/28 18:01:09;;;;;;;3.25;2.17;;;8.00;99.90;;;;;;10459115;28;20504;-67
2024/01/28 18:06:11;;;;;;;4.32;2.30;;;8.00;99.90;;;;;;10447360;28;20214;-67
2024/01/28 18:11:12;;;;;;;3.63;2.40;;;8.00;99.90;;;;;;10455437;28;20013;-67
2024/01/28 18:16:13;;;;;;;4.68;2.25;;;8.00;99.90;;;;;;10446847;28;20104;-70
2024/01/28 18:21:14;;;;;;;5.75;2.30;;;8.10;99.90;;;;;;10454159;28;20060;-68
2024/01/28 18:26:15;;;;;;;5.22;2.70;;;8.10;99.90;;;;;;10446570;28;20107;-68
2024/01/28 18:31:15;;;;;;;4.35;2.50;;;8.00;99.90;;;;;;10447366;28;20029;-67
2024/01/28 18:36:18;;;;;;;4.50;2.42;;;8.00;99.90;;;;;;10435591;28;20039;-69
2024/01/28 18:41:19;;;;;;;5.47;2.67;;;8.00;99.90;;;;;;10455409;28;20032;-68
2024/01/28 18:46:20;;;;;;;4.25;2.47;;;7.90;99.90;;;;;;10440479;28;20025;-70
2024/01/28 18:51:20;;;;;;;6.00;2.70;;;7.90;99.90;;;;;;10438414;28;20457;-68
2024/01/28 18:56:21;;;;;;;7.10;2.60;;;8.00;99.90;;;;;;10437900;28;20021;-67
2024/01/28 19:01:22;;;;;;;6.13;3.05;;;8.00;99.90;;;;;;10444476;28;20452;-67
2024/01/28 19:06:23;;;;;;;4.80;2.90;;;7.90;99.90;;;;;;10448920;28;20102;-67
2024/01/28 19:11:24;;;;;;;5.80;2.65;;;7.90;99.90;;;;;;10446590;28;20366;-68
2024/01/28 19:16:25;;;;;;;5.45;2.60;;;7.90;99.90;;;;;;10429638;28;20032;-67
2024/01/28 19:21:25;;;;;;;4.72;2.80;;;7.90;99.90;;;;;;10445582;28;20017;-67
2024/01/28 19:26:26;;;;;;;4.88;2.72;;;7.90;99.90;;;;;;10452126;28;20025;-68
2024/01/28 19:31:28;;;;;;;4.43;2.60;;;7.90;99.90;;;;;;10436198;28;20036;-67
2024/01/28 19:36:32;;;;;;;6.60;2.85;;;7.80;99.90;;;;;;10441601;28;20033;-67
2024/01/28 19:41:33;;;;;;;5.95;2.55;;;7.80;99.90;;;;;;10441513;28;20475;-67
2024/01/28 19:46:34;;;;;;;7.10;3.13;;;7.80;99.90;;;;;;10433714;28;20036;-67
2024/01/28 19:51:35;;;;;;;4.57;2.83;;;7.80;99.90;;;;;;10447924;28;20029;-68
2024/01/28 19:56:35;;;;;;;3.63;2.53;;;7.80;99.90;;;;;;10437680;28;20033;-67
2024/01/28 20:01:36;;;;;;;5.07;2.78;;;7.80;99.90;;;;;;10440789;28;20115;-67
2024/01/28 20:06:37;;;;;;;7.05;3.20;;;7.80;99.90;;;;;;10434000;28;20029;-67
2024/01/28 20:11:37;;;;;;;5.25;2.72;;;7.80;99.90;;;;;;10440577;28;20025;-67
2024/01/28 20:16:38;;;;;;;3.85;2.67;;;7.80;99.90;;;;;;10446266;28;20040;-67
2024/01/28 20:21:38;;;;;;;5.63;2.95;;;7.80;99.90;;;;;;10434584;28;20025;-67
2024/01/28 20:26:39;;;;;;;8.30;2.92;;;7.80;99.90;;;;;;10439766;28;20031;-67
2024/01/28 20:31:40;;;;;;;4.57;2.78;;;7.70;99.90;;;;;;10442621;28;20017;-68
2024/01/28 20:36:42;;;;;;;7.15;3.20;;;7.70;99.90;;;;;;10436290;28;20218;-68
2024/01/28 20:41:45;;;;;;;8.50;3.35;;;7.70;99.90;;;;;;10444743;28;20045;-67
2024/01/28 20:46:46;;;;;;;5.13;2.92;;;7.70;99.90;;;;;;10446925;28;20618;-68
2024/01/28 20:51:46;;;;;;;4.35;3.20;;;7.70;99.90;;;;;;10440852;28;20511;-68
2024/01/28 20:56:47;;;;;;;3.53;2.70;;;7.70;99.90;;;;;;10450562;28;20515;-67
2024/01/28 21:01:50;;;;;;;5.30;2.90;;;7.70;99.90;;;;;;10440355;28;20038;-67
2024/01/28 21:06:50;;;;;;;5.80;3.10;;;7.70;99.90;;;;;;10443777;28;20024;-68
2024/01/28 21:11:52;;;;;;;4.65;2.92;;;7.70;99.90;;;;;;10451816;28;20056;-67
2024/01/28 21:16:54;;;;;;;4.68;3.22;;;7.70;99.90;;;;;;10440755;28;20508;-67
2024/01/28 21:21:55;;;;;;;5.75;3.22;;;7.70;99.90;;;;;;10444844;28;20027;-67
2024/01/28 21:26:55;;;;;;;4.75;2.92;;;7.70;99.90;;;;;;10455963;28;20336;-67
2024/01/28 21:31:56;;;;;;;6.53;3.10;;;7.70;99.90;;;;;;10447689;28;20021;-67
2024/01/28 21:36:57;;;;;;;6.07;3.63;;;7.70;99.90;;;;;;10452546;28;20029;-67
2024/01/28 21:41:58;;;;;;;4.18;2.50;;;7.70;99.90;;;;;;10444510;28;20033;-67
2024/01/28 21:46:58;;;;;;;4.55;2.83;;;7.70;99.90;;;;;;10437707;28;20017;-67
2024/01/28 21:52:00;;;;;;;6.35;3.30;;;7.70;99.90;;;;;;10454357;28;20023;-67
2024/01/28 21:57:00;;;;;;;4.93;2.80;;;7.70;99.90;;;;;;10441485;28;20060;-67
2024/01/28 22:02:01;;;;;;;4.57;2.70;;;7.70;99.90;;;;;;10446677;28;20262;-67
2024/01/28 22:07:02;;;;;;;6.75;3.78;;;7.70;99.90;;;;;;10442144;28;20087;-68
2024/01/28 22:12:02;;;;;;;6.63;3.50;;;7.90;99.90;;;;;;10451930;28;20025;-67
2024/01/28 22:17:06;;;;;;;3.70;2.38;;;7.60;99.90;;;;;;10449624;28;20191;-67
2024/01/28 22:22:08;;;;;;;4.22;2.72;;;7.60;99.90;;;;;;10440855;28;20447;-67
2024/01/28 22:27:08;;;;;;;4.95;2.83;;;7.60;99.90;;;;;;10443970;28;20025;-67
2024/01/28 22:32:09;;;;;;;5.32;3.00;;;7.60;99.90;;;;;;10438647;28;20035;-68
2024/01/28 22:37:10;;;;;;;4.72;2.63;;;7.60;99.90;;;;;;10441592;28;20405;-67
2024/01/28 22:42:10;;;;;;;4.05;2.45;;;7.60;99.90;;;;;;10441299;28;20541;-67
2024/01/28 22:47:11;;;;;;;6.80;2.92;;;7.60;99.90;;;;;;10439381;28;20341;-67
2024/01/28 22:52:13;;;;;;;4.43;3.00;;;7.60;99.90;;;;;;10446740;28;20396;-67
2024/01/28 22:57:14;;;;;;;5.13;3.00;;;7.60;99.90;;;;;;10441993;28;20067;-67
2024/01/28 23:02:25;;;;;;;5.50;2.65;;;7.60;99.90;;;;;;10449668;28;20020;-68
2024/01/28 23:07:25;;;;;;;4.32;2.67;;;7.60;99.90;;;;;;10442138;28;20353;-67
2024/01/28 23:12:26;;;;;;;4.43;2.58;;;7.60;99.90;;;;;;10444814;28;20420;-67
2024/01/28 23:17:26;;;;;;;4.70;2.75;;;7.60;99.90;;;;;;10448804;28;20524;-68
2024/01/28 23:22:27;;;;;;;3.63;2.38;;;7.60;99.90;;;;;;10457050;28;20509;-67
2024/01/28 23:27:27;;;;;;;3.88;2.33;;;7.60;99.90;;;;;;10450534;28;20358;-67
2024/01/28 23:32:28;;;;;;;5.03;2.80;;;7.60;99.90;;;;;;10443864;28;20029;-67
2024/01/28 23:37:28;;;;;;;7.25;2.67;;;7.60;99.90;;;;;;10450772;28;20021;-67
2024/01/28 23:42:29;;;;;;;4.88;2.90;;;7.50;99.90;;;;;;10447047;28;20033;-67
2024/01/28 23:47:30;;;;;;;3.60;2.35;;;7.60;99.90;;;;;;10447401;28;20574;-67
2024/01/28 23:52:30;;;;;;;5.55;3.05;;;7.50;99.90;;;;;;10446290;28;20410;-67
2024/01/28 23:57:31;;;;;;;5.00;2.70;;;7.50;99.90;;;;;;10448359;28;20139;-67
